createdAt,value
2023-02-14T00:02:05.665Z,13.30
2023-02-14T00:04:38.323Z,10.80
2023-02-14T00:07:07.223Z,9.23
2023-02-14T00:09:36.409Z,7.50
2023-02-14T00:12:06.134Z,7.05
2023-02-14T00:14:54.140Z,7.28
2023-02-14T00:17:23.048Z,6.28
2023-02-14T00:19:52.205Z,5.65
2023-02-14T00:22:21.132Z,6.50
2023-02-14T00:24:50.229Z,6.70
2023-02-14T00:27:19.119Z,4.82
2023-02-14T00:29:49.739Z,4.60
2023-02-14T00:32:18.620Z,4.90
2023-02-14T00:34:47.721Z,4.28
2023-02-14T00:37:16.698Z,4.40
2023-02-14T00:39:45.841Z,4.85
2023-02-14T00:42:14.731Z,4.82
2023-02-14T00:44:43.925Z,4.95
2023-02-14T00:47:14.627Z,4.40
2023-02-14T00:49:43.917Z,4.93
2023-02-14T00:52:12.939Z,4.57
2023-02-14T00:54:42.171Z,4.78
2023-02-14T00:57:11.109Z,4.60
2023-02-14T00:59:40.285Z,4.67
2023-02-14T01:02:09.139Z,5.03
2023-02-14T01:04:39.840Z,4.67
2023-02-14T01:09:37.607Z,4.78
2023-02-14T01:12:07.084Z,5.03
2023-02-14T01:14:36.503Z,4.18
2023-02-14T01:17:05.418Z,4.53
2023-02-14T01:19:34.632Z,4.60
2023-02-14T01:22:04.984Z,4.85
2023-02-14T01:24:34.218Z,4.82
2023-02-14T01:27:03.035Z,4.97
2023-02-14T01:29:32.447Z,5.32
2023-02-14T01:32:01.493Z,5.22
2023-02-14T01:34:30.793Z,4.90
2023-02-14T01:36:59.644Z,5.05
2023-02-14T01:39:30.242Z,5.57
2023-02-14T01:44:56.300Z,4.30
2023-02-14T01:47:27.103Z,4.55
2023-02-14T01:50:00.736Z,4.28
2023-02-14T01:52:34.347Z,4.38
2023-02-14T01:55:09.352Z,5.60
2023-02-14T01:57:41.868Z,4.35
2023-02-14T02:00:29.849Z,4.65
2023-02-14T02:03:00.272Z,4.38
2023-02-14T02:05:29.827Z,4.28
2023-02-14T02:08:01.392Z,4.47
2023-02-14T02:10:32.013Z,4.88
2023-02-14T02:13:06.221Z,4.70
2023-02-14T02:15:43.029Z,5.13
2023-02-14T02:18:20.658Z,3.92
2023-02-14T02:21:14.721Z,4.93
2023-02-14T02:24:25.765Z,4.45
2023-02-14T02:27:31.627Z,5.22
2023-02-14T02:30:35.060Z,4.80
2023-02-14T02:33:44.827Z,4.65
2023-02-14T02:36:47.878Z,4.68
2023-02-14T02:39:32.845Z,4.45
2023-02-14T02:42:09.519Z,4.50
2023-02-14T02:44:51.169Z,4.95
2023-02-14T02:47:27.609Z,4.65
2023-02-14T02:50:24.631Z,4.57
2023-02-14T02:53:04.224Z,4.63
2023-02-14T02:56:00.738Z,5.43
2023-02-14T02:58:36.640Z,4.65
2023-02-14T03:01:15.316Z,4.85
2023-02-14T03:04:06.713Z,4.80
2023-02-14T03:06:36.367Z,4.55
2023-02-14T03:09:53.152Z,4.68
2023-02-14T03:12:59.670Z,4.78
2023-02-14T03:15:48.999Z,4.90
2023-02-14T03:18:34.632Z,5.10
2023-02-14T03:21:10.972Z,4.30
2023-02-14T03:23:51.852Z,4.90
2023-02-14T03:26:28.509Z,4.90
2023-02-14T03:29:05.698Z,4.97
2023-02-14T03:31:40.094Z,4.88
2023-02-14T03:34:13.824Z,4.95
2023-02-14T03:36:50.162Z,6.00
2023-02-14T03:39:26.222Z,5.43
2023-02-14T03:42:06.109Z,5.03
2023-02-14T03:44:37.884Z,5.10
2023-02-14T03:47:11.388Z,4.63
2023-02-14T03:49:44.842Z,5.63
2023-02-14T03:52:15.356Z,5.28
2023-02-14T03:54:46.645Z,5.80
2023-02-14T03:57:22.912Z,5.75
2023-02-14T03:59:52.293Z,5.20
2023-02-14T04:02:26.307Z,4.80
2023-02-14T04:04:57.785Z,5.35
2023-02-14T04:07:27.243Z,5.25
2023-02-14T04:09:56.346Z,4.85
2023-02-14T04:12:37.476Z,5.22
2023-02-14T04:15:08.718Z,5.20
2023-02-14T04:17:55.523Z,4.88
2023-02-14T04:20:24.747Z,5.15
2023-02-14T04:22:53.776Z,5.28
2023-02-14T04:25:23.684Z,4.60
2023-02-14T04:27:53.893Z,5.22
2023-02-14T04:30:23.483Z,4.60
2023-02-14T04:32:52.384Z,5.55
2023-02-14T04:35:21.565Z,4.93
2023-02-14T04:37:50.488Z,4.80
2023-02-14T04:40:19.785Z,4.77
2023-02-14T04:42:49.328Z,5.38
2023-02-14T04:45:20.066Z,5.43
2023-02-14T04:47:48.973Z,5.35
2023-02-14T04:50:18.153Z,5.65
2023-02-14T04:52:47.085Z,5.00
2023-02-14T04:55:16.222Z,4.90
2023-02-14T04:57:45.297Z,5.03
2023-02-14T05:00:15.752Z,4.83
2023-02-14T05:02:46.043Z,5.65
2023-02-14T05:05:15.320Z,5.25
2023-02-14T05:07:47.763Z,4.97
2023-02-14T05:10:17.187Z,4.95
2023-02-14T05:12:46.003Z,5.00
2023-02-14T05:15:15.910Z,4.57
2023-02-14T05:17:46.118Z,5.22
2023-02-14T05:20:15.497Z,4.43
2023-02-14T05:22:44.301Z,4.70
2023-02-14T05:25:13.556Z,4.65
2023-02-14T05:27:42.388Z,5.47
2023-02-14T05:30:13.078Z,5.05
2023-02-14T05:32:42.072Z,4.60
2023-02-14T05:35:12.724Z,5.20
2023-02-14T05:40:13.495Z,4.60
2023-02-14T05:42:42.722Z,3.88
2023-02-14T05:45:12.746Z,4.43
2023-02-14T05:47:41.968Z,5.10
2023-02-14T05:50:13.140Z,8.70
2023-02-14T05:52:42.100Z,7.53
2023-02-14T05:55:12.427Z,7.57
2023-02-14T05:57:41.423Z,34.72
2023-02-14T06:00:11.887Z,59.92
2023-02-14T06:02:43.584Z,83.60
2023-02-14T06:05:14.895Z,51.77
2023-02-14T06:07:48.890Z,91.90
2023-02-14T06:10:19.121Z,29.35
2023-02-14T06:12:50.183Z,129.95
2023-02-14T06:15:19.772Z,76.05
2023-02-14T06:17:53.879Z,30.98
2023-02-14T06:20:25.506Z,21.45
2023-02-14T06:22:54.825Z,8.45
2023-02-14T06:25:24.669Z,15.45
2023-02-14T06:27:56.841Z,10.43
2023-02-14T06:30:27.221Z,12.60
2023-02-14T06:35:26.693Z,11.85
2023-02-14T06:37:55.682Z,21.48
2023-02-14T06:40:25.171Z,11.98
2023-02-14T06:42:54.195Z,34.35
2023-02-14T06:45:23.291Z,23.85
2023-02-14T06:47:52.155Z,26.58
2023-02-14T06:50:21.477Z,14.30
2023-02-14T06:52:51.898Z,24.67
2023-02-14T06:55:21.104Z,24.10
2023-02-14T06:57:49.962Z,42.60
2023-02-14T07:00:20.446Z,14.20
2023-02-14T07:02:49.344Z,18.00
2023-02-14T07:05:19.327Z,26.20
2023-02-14T07:07:48.298Z,33.40
2023-02-14T07:10:19.020Z,28.45
2023-02-14T07:12:47.926Z,23.27
2023-02-14T07:15:17.061Z,34.95
2023-02-14T07:17:46.231Z,15.93
2023-02-14T07:20:15.738Z,16.60
2023-02-14T07:22:44.889Z,19.08
2023-02-14T07:25:14.800Z,10.73
2023-02-14T07:27:46.324Z,27.15
2023-02-14T07:30:16.470Z,14.30
2023-02-14T07:32:45.371Z,15.00
2023-02-14T07:35:15.368Z,19.50
2023-02-14T07:37:44.344Z,18.88
2023-02-14T07:40:15.289Z,13.13
2023-02-14T07:42:45.837Z,29.80
2023-02-14T07:45:21.675Z,14.60
2023-02-14T07:47:52.556Z,27.15
2023-02-14T07:50:22.606Z,14.75
2023-02-14T07:52:51.820Z,19.52
2023-02-14T07:55:21.130Z,27.73
2023-02-14T07:57:52.004Z,32.28
2023-02-14T08:00:22.318Z,20.92
2023-02-14T08:02:51.335Z,12.50
2023-02-14T08:05:20.751Z,14.35
2023-02-14T08:07:50.548Z,7.22
2023-02-14T08:10:19.986Z,23.38
2023-02-14T08:13:03.617Z,17.00
2023-02-14T08:15:52.244Z,12.75
2023-02-14T08:18:23.689Z,7.82
2023-02-14T08:20:53.199Z,20.20
2023-02-14T08:23:22.723Z,23.55
2023-02-14T08:25:53.165Z,19.25
2023-02-14T08:28:23.857Z,11.65
2023-02-14T08:30:54.206Z,13.35
2023-02-14T08:33:24.125Z,10.35
2023-02-14T08:35:53.814Z,14.75
2023-02-14T08:38:23.011Z,8.20
2023-02-14T08:40:52.199Z,8.20
2023-02-14T08:43:22.556Z,30.27
2023-02-14T08:45:54.899Z,11.23
2023-02-14T08:48:25.404Z,7.05
2023-02-14T08:50:54.567Z,7.57
2023-02-14T08:53:23.454Z,7.03
2023-02-14T08:55:52.773Z,6.20
2023-02-14T08:58:23.126Z,7.55
2023-02-14T09:00:52.335Z,5.97
2023-02-14T09:03:21.353Z,5.10
2023-02-14T09:05:50.685Z,7.35
2023-02-14T09:08:19.721Z,7.53
2023-02-14T09:10:48.938Z,7.10
2023-02-14T09:13:17.926Z,6.90
2023-02-14T09:15:48.527Z,7.27
2023-02-14T09:20:46.511Z,6.43
2023-02-14T09:23:15.429Z,7.20
2023-02-14T09:25:44.613Z,9.23
2023-02-14T09:28:13.519Z,9.95
2023-02-14T09:30:42.675Z,8.77
2023-02-14T09:33:12.991Z,6.28
2023-02-14T09:35:42.204Z,5.47
2023-02-14T09:38:18.871Z,5.78
2023-02-14T09:40:50.527Z,5.97
2023-02-14T09:43:24.953Z,5.82
2023-02-14T09:45:56.802Z,5.53
2023-02-14T09:48:32.656Z,5.75
2023-02-14T09:51:06.443Z,6.05
2023-02-14T09:53:41.348Z,6.43
2023-02-14T09:56:17.914Z,6.10
2023-02-14T09:58:56.930Z,6.40
2023-02-14T10:01:33.396Z,6.35
2023-02-14T10:04:17.519Z,5.85
2023-02-14T10:06:58.114Z,5.85
2023-02-14T10:12:17.615Z,5.22
2023-02-14T10:14:47.157Z,5.95
2023-02-14T10:17:22.036Z,5.97
2023-02-14T10:19:58.927Z,6.00
2023-02-14T10:22:38.419Z,5.43
2023-02-14T10:25:19.095Z,5.88
2023-02-14T10:27:49.972Z,5.32
2023-02-14T10:30:23.182Z,5.72
2023-02-14T10:33:00.651Z,5.95
2023-02-14T10:35:39.874Z,5.85
2023-02-14T10:38:23.500Z,6.03
2023-02-14T10:41:21.602Z,6.55
2023-02-14T10:44:03.030Z,6.60
2023-02-14T10:46:39.791Z,6.30
2023-02-14T10:49:24.744Z,6.85
2023-02-14T10:52:02.749Z,6.07
2023-02-14T10:54:39.389Z,5.82
2023-02-14T10:57:15.861Z,6.50
2023-02-14T10:59:53.802Z,6.40
2023-02-14T11:02:26.172Z,6.57
2023-02-14T11:04:56.066Z,6.20
2023-02-14T11:07:26.810Z,6.47
2023-02-14T11:09:56.497Z,5.88
2023-02-14T11:12:38.512Z,5.80
2023-02-14T11:15:23.496Z,5.43
2023-02-14T11:18:08.814Z,5.68
2023-02-14T11:20:38.107Z,5.57
2023-02-14T11:23:22.035Z,5.82
2023-02-14T11:25:55.460Z,5.07
2023-02-14T11:28:24.805Z,4.82
2023-02-14T11:30:54.586Z,5.35
2023-02-14T11:33:45.806Z,5.45
2023-02-14T11:36:17.991Z,5.45
2023-02-14T11:38:57.674Z,4.97
2023-02-14T11:41:26.867Z,5.43
2023-02-14T11:44:15.491Z,5.38
2023-02-14T11:46:53.112Z,5.78
2023-02-14T11:49:30.296Z,5.45
2023-02-14T11:52:02.976Z,5.47
2023-02-14T11:54:36.819Z,19.70
2023-02-14T11:57:08.536Z,5.55
2023-02-14T11:59:42.764Z,6.78
2023-02-14T12:02:30.045Z,8.85
2023-02-14T12:05:02.915Z,9.60
2023-02-14T12:07:35.240Z,6.13
2023-02-14T12:10:26.440Z,5.85
2023-02-14T12:13:01.633Z,8.38
2023-02-14T12:15:37.848Z,5.72
2023-02-14T12:18:51.465Z,5.65
2023-02-14T12:21:49.529Z,5.50
2023-02-14T12:24:26.833Z,10.95
2023-02-14T12:27:07.707Z,7.03
2023-02-14T12:29:41.729Z,6.10
2023-02-14T12:32:19.429Z,9.40
2023-02-14T12:34:49.049Z,6.53
2023-02-14T12:37:41.919Z,5.82
2023-02-14T12:40:21.296Z,7.32
2023-02-14T12:43:14.872Z,5.72
2023-02-14T12:46:09.911Z,6.13
2023-02-14T12:48:53.467Z,5.50
2023-02-14T12:51:30.402Z,5.53
2023-02-14T12:54:09.540Z,5.85
2023-02-14T12:56:51.010Z,6.50
2023-02-14T12:59:31.102Z,6.28
2023-02-14T13:02:25.517Z,6.95
2023-02-14T13:05:02.781Z,7.10
2023-02-14T13:07:47.953Z,5.95
2023-02-14T13:10:26.352Z,5.97
2023-02-14T13:13:03.119Z,5.65
2023-02-14T13:15:44.561Z,6.40
2023-02-14T13:18:22.197Z,6.55
2023-02-14T13:20:55.687Z,6.95
2023-02-14T13:23:30.649Z,6.53
2023-02-14T13:26:03.614Z,6.50
2023-02-14T13:28:33.769Z,7.72
2023-02-14T13:31:05.204Z,7.00
2023-02-14T13:33:38.394Z,6.93
2023-02-14T13:36:10.835Z,7.22
2023-02-14T13:38:48.986Z,7.53
2023-02-14T13:41:19.238Z,7.65
2023-02-14T13:43:57.235Z,7.40
2023-02-14T13:46:52.202Z,7.40
2023-02-14T13:49:34.578Z,6.65
2023-02-14T13:52:04.945Z,6.85
2023-02-14T13:54:38.669Z,7.13
2023-02-14T13:57:31.693Z,7.50
2023-02-14T14:00:46.918Z,6.28
2023-02-14T14:03:57.942Z,5.78
2023-02-14T14:06:27.709Z,6.10
2023-02-14T14:08:58.700Z,5.57
2023-02-14T14:12:00.883Z,5.25
2023-02-14T14:14:36.501Z,5.18
2023-02-14T14:17:26.118Z,5.75
2023-02-14T14:19:58.017Z,5.60
2023-02-14T14:22:28.463Z,5.00
2023-02-14T14:25:02.974Z,5.47
2023-02-14T14:27:35.844Z,5.75
2023-02-14T14:30:16.262Z,5.88
2023-02-14T14:32:45.694Z,5.45
2023-02-14T14:35:23.722Z,5.03
2023-02-14T14:37:55.063Z,5.50
2023-02-14T14:40:28.830Z,5.05
2023-02-14T14:43:01.968Z,5.05
2023-02-14T14:45:32.517Z,5.05
2023-02-14T14:48:09.274Z,5.50
2023-02-14T14:50:40.034Z,5.00
2023-02-14T14:53:19.625Z,4.72
2023-02-14T14:55:52.130Z,5.15
2023-02-14T14:58:45.357Z,4.72
2023-02-14T15:01:28.730Z,5.05
2023-02-14T15:04:12.213Z,5.45
2023-02-14T15:06:43.459Z,5.15
2023-02-14T15:09:22.354Z,5.07
2023-02-14T15:12:12.176Z,6.30
2023-02-14T15:14:44.573Z,5.82
2023-02-14T15:17:19.481Z,5.88
2023-02-14T15:19:54.035Z,6.20
2023-02-14T15:22:27.694Z,6.38
2023-02-14T15:24:58.874Z,6.35
2023-02-14T15:27:29.493Z,6.45
2023-02-14T15:30:00.653Z,6.43
2023-02-14T15:32:33.458Z,6.30
2023-02-14T15:35:05.487Z,6.45
2023-02-14T15:37:36.426Z,6.45
2023-02-14T15:40:08.719Z,7.65
2023-02-14T15:42:44.940Z,6.78
2023-02-14T15:45:19.213Z,7.05
2023-02-14T15:47:51.312Z,6.53
2023-02-14T15:50:24.393Z,6.90
2023-02-14T15:52:56.917Z,7.47
2023-02-14T15:55:28.545Z,6.88
2023-02-14T15:58:00.953Z,7.18
2023-02-14T16:00:31.605Z,7.63
2023-02-14T16:05:32.200Z,7.22
2023-02-14T16:08:04.896Z,7.45
2023-02-14T16:10:35.647Z,6.95
2023-02-14T16:13:08.621Z,6.82
2023-02-14T16:15:39.077Z,7.68
2023-02-14T16:18:20.859Z,8.02
2023-02-14T16:20:51.299Z,8.80
2023-02-14T16:23:30.992Z,11.80
2023-02-14T16:26:00.204Z,20.00
2023-02-14T16:28:31.497Z,10.52
2023-02-14T16:31:05.662Z,11.98
2023-02-14T16:33:37.004Z,13.93
2023-02-14T16:36:09.470Z,14.13
2023-02-14T16:38:43.858Z,13.50
2023-02-14T16:41:18.857Z,15.43
2023-02-14T16:43:48.798Z,16.98
2023-02-14T16:48:52.113Z,12.35
2023-02-14T16:51:23.595Z,24.27
2023-02-14T16:53:54.809Z,31.70
2023-02-14T16:56:28.645Z,28.77
2023-02-14T16:58:58.609Z,30.35
2023-02-14T17:03:56.721Z,14.70
2023-02-14T17:06:28.954Z,33.35
2023-02-14T17:09:02.122Z,20.40
2023-02-14T17:11:33.094Z,48.90
2023-02-14T17:14:02.113Z,17.40
2023-02-14T17:16:32.705Z,11.10
2023-02-14T17:19:04.246Z,10.77
2023-02-14T17:21:34.513Z,42.00
2023-02-14T17:26:35.153Z,16.13
2023-02-14T17:29:03.980Z,16.40
2023-02-14T17:31:33.616Z,14.75
2023-02-14T17:34:02.560Z,14.03
2023-02-14T17:36:32.418Z,12.63
2023-02-14T17:39:03.304Z,12.77
2023-02-14T17:41:34.379Z,12.55
2023-02-14T17:44:05.165Z,11.63
2023-02-14T17:46:34.646Z,9.40
2023-02-14T17:49:04.033Z,9.88
2023-02-14T17:51:33.530Z,9.00
2023-02-14T17:54:02.416Z,8.43
2023-02-14T17:56:33.514Z,8.93
2023-02-14T17:59:02.558Z,11.27
2023-02-14T18:01:34.374Z,19.73
2023-02-14T18:04:05.653Z,19.30
2023-02-14T18:06:34.994Z,20.60
2023-02-14T18:09:06.994Z,21.45
2023-02-14T18:11:39.966Z,20.98
2023-02-14T18:14:09.583Z,30.73
2023-02-14T18:16:40.328Z,18.95
2023-02-14T18:19:10.111Z,18.10
2023-02-14T18:21:40.441Z,21.00
2023-02-14T18:24:10.397Z,29.30
2023-02-14T18:26:43.077Z,42.10
2023-02-14T18:29:15.156Z,56.58
2023-02-14T18:31:45.638Z,51.15
2023-02-14T18:36:43.984Z,18.77
2023-02-14T18:39:13.197Z,18.73
2023-02-14T18:41:44.045Z,13.10
2023-02-14T18:44:13.745Z,8.88
2023-02-14T18:46:42.937Z,8.40
2023-02-14T18:49:13.341Z,9.05
2023-02-14T18:51:43.653Z,9.32
2023-02-14T18:54:12.587Z,11.85
2023-02-14T18:56:43.132Z,9.93
2023-02-14T18:59:14.414Z,8.98
2023-02-14T19:01:46.153Z,8.43
2023-02-14T19:04:17.786Z,8.13
2023-02-14T19:06:47.003Z,8.93
2023-02-14T19:09:17.241Z,8.75
2023-02-14T19:11:48.454Z,8.25
2023-02-14T19:14:20.326Z,8.05
2023-02-14T19:16:53.637Z,8.95
2023-02-14T19:19:24.199Z,9.98
2023-02-14T19:21:54.504Z,11.45
2023-02-14T19:24:25.605Z,13.13
2023-02-14T19:26:57.842Z,13.85
2023-02-14T19:29:27.106Z,10.18
2023-02-14T19:31:59.570Z,10.75
2023-02-14T19:34:31.655Z,10.80
2023-02-14T19:37:02.493Z,9.73
2023-02-14T19:42:04.476Z,9.38
2023-02-14T19:44:33.576Z,9.48
2023-02-14T19:47:15.689Z,10.50
2023-02-14T19:49:53.506Z,8.93
2023-02-14T19:52:26.857Z,9.50
2023-02-14T19:54:57.600Z,9.43
2023-02-14T19:57:28.400Z,11.02
2023-02-14T19:59:57.569Z,10.00
2023-02-14T20:02:27.021Z,11.60
2023-02-14T20:04:59.480Z,11.63
2023-02-14T20:07:29.044Z,11.15
2023-02-14T20:09:58.156Z,11.95
2023-02-14T20:12:28.819Z,11.80
2023-02-14T20:17:27.095Z,11.10
2023-02-14T20:19:56.539Z,12.07
2023-02-14T20:22:26.009Z,10.15
2023-02-14T20:24:55.658Z,9.48
2023-02-14T20:27:25.877Z,10.32
2023-02-14T20:29:56.576Z,11.73
2023-02-14T20:32:26.047Z,10.43
2023-02-14T20:34:57.914Z,9.77
2023-02-14T20:37:27.253Z,10.35
2023-02-14T20:39:56.081Z,9.80
2023-02-14T20:42:25.439Z,10.23
2023-02-14T20:44:55.768Z,10.10
2023-02-14T20:47:25.003Z,10.60
2023-02-14T20:49:53.902Z,9.80
2023-02-14T20:52:23.257Z,11.70
2023-02-14T20:54:52.077Z,11.48
2023-02-14T20:57:21.471Z,9.75
2023-02-14T20:59:50.405Z,9.35
2023-02-14T21:02:20.979Z,10.55
2023-02-14T21:04:50.019Z,11.60
2023-02-14T21:07:19.330Z,13.50
2023-02-14T21:09:48.204Z,11.45
2023-02-14T21:12:17.376Z,11.77
2023-02-14T21:14:46.318Z,15.27
2023-02-14T21:17:15.614Z,12.15
2023-02-14T21:19:46.007Z,12.90
2023-02-14T21:22:15.610Z,12.10
2023-02-14T21:24:44.520Z,10.80
2023-02-14T21:27:13.961Z,10.98
2023-02-14T21:29:42.947Z,10.15
2023-02-14T21:32:12.263Z,10.70
2023-02-14T21:34:41.375Z,10.25
2023-02-14T21:37:12.913Z,10.48
2023-02-14T21:39:41.864Z,9.07
2023-02-14T21:42:11.880Z,9.82
2023-02-14T21:44:58.367Z,9.75
2023-02-14T21:47:27.763Z,9.85
2023-02-14T21:50:14.274Z,10.07
2023-02-14T21:52:44.848Z,9.98
2023-02-14T21:57:42.711Z,9.27
2023-02-14T22:00:12.601Z,10.20
2023-02-14T22:02:41.814Z,9.80
2023-02-14T22:05:10.741Z,9.25
2023-02-14T22:07:39.969Z,9.30
2023-02-14T22:10:12.894Z,9.88
2023-02-14T22:12:42.185Z,9.68
2023-02-14T22:15:11.426Z,9.60
2023-02-14T22:17:40.696Z,10.27
2023-02-14T22:20:11.122Z,9.10
2023-02-14T22:22:40.326Z,9.68
2023-02-14T22:25:10.628Z,9.90
2023-02-14T22:27:40.981Z,10.07
2023-02-14T22:30:10.697Z,9.65
2023-02-14T22:32:39.843Z,9.80
2023-02-14T22:35:09.340Z,9.60
2023-02-14T22:37:38.465Z,9.93
2023-02-14T22:40:09.868Z,10.63
2023-02-14T22:42:39.058Z,10.07
2023-02-14T22:45:08.826Z,11.20
2023-02-14T22:47:38.065Z,11.35
2023-02-14T22:50:07.997Z,10.70
2023-02-14T22:52:37.501Z,11.52
2023-02-14T22:55:06.848Z,11.20
2023-02-14T22:57:37.354Z,10.85
2023-02-14T23:00:11.609Z,10.73
2023-02-14T23:02:40.874Z,10.52
2023-02-14T23:05:09.996Z,10.60
2023-02-14T23:07:39.193Z,12.18
2023-02-14T23:10:09.318Z,13.05
2023-02-14T23:12:57.195Z,12.68
2023-02-14T23:15:43.386Z,11.98
2023-02-14T23:18:32.027Z,12.48
2023-02-14T23:21:18.187Z,11.63
2023-02-14T23:23:47.485Z,11.00
2023-02-14T23:26:20.846Z,11.73
2023-02-14T23:28:51.514Z,11.95
2023-02-14T23:31:20.802Z,11.63
2023-02-14T23:33:52.725Z,12.77
2023-02-14T23:36:21.616Z,13.70
2023-02-14T23:38:50.735Z,12.05
2023-02-14T23:41:37.212Z,10.95
2023-02-14T23:44:09.019Z,11.32
2023-02-14T23:46:37.994Z,11.48
2023-02-14T23:49:07.548Z,11.77
2023-02-14T23:51:37.325Z,12.03
2023-02-14T23:54:07.341Z,11.27
2023-02-14T23:56:36.744Z,11.60
2023-02-14T23:59:08.038Z,11.13
